createdAt,value
2022-11-24T00:00:31.352Z,99625.28
2022-11-24T00:05:38.326Z,99629.00
2022-11-24T00:10:39.787Z,99624.09
2022-11-24T00:15:41.236Z,99642.31
2022-11-24T00:20:42.682Z,99635.59
2022-11-24T00:25:44.134Z,99640.78
2022-11-24T00:30:45.679Z,99628.75
2022-11-24T00:35:54.613Z,99628.53
2022-11-24T00:40:56.111Z,99618.88
2022-11-24T00:45:57.687Z,99624.66
2022-11-24T00:51:00.990Z,99624.53
2022-11-24T00:56:03.938Z,99627.13
2022-11-24T01:01:07.498Z,99619.00
2022-11-24T01:06:13.463Z,99632.31
2022-11-24T01:11:19.398Z,99640.59
2022-11-24T01:16:31.862Z,99656.09
2022-11-24T01:21:33.327Z,99664.03
2022-11-24T01:26:34.779Z,99669.06
2022-11-24T01:31:37.015Z,99677.69
2022-11-24T01:36:38.514Z,99686.97
2022-11-24T01:41:40.030Z,99687.75
2022-11-24T01:46:44.816Z,99686.72
2022-11-24T01:52:19.949Z,99691.16
2022-11-24T01:57:29.621Z,99693.53
2022-11-24T02:02:31.084Z,99703.22
2022-11-24T02:07:32.610Z,99717.78
2022-11-24T02:12:34.126Z,99728.19
2022-11-24T02:17:35.672Z,99728.50
2022-11-24T02:23:03.670Z,99754.56
2022-11-24T02:28:07.270Z,99749.78
2022-11-24T02:33:09.930Z,99753.81
2022-11-24T02:38:12.818Z,99757.63
2022-11-24T02:43:16.490Z,99756.13
2022-11-24T02:48:17.965Z,99769.06
2022-11-24T02:53:19.426Z,99773.91
2022-11-24T02:58:20.939Z,99781.50
2022-11-24T03:03:22.437Z,99766.84
2022-11-24T03:08:23.898Z,99784.56
2022-11-24T03:13:25.358Z,99791.00
2022-11-24T03:18:26.806Z,99780.78
2022-11-24T03:23:28.272Z,99786.81
2022-11-24T03:28:29.722Z,99783.63
2022-11-24T03:33:31.174Z,99788.06
2022-11-24T03:38:32.683Z,99791.63
2022-11-24T03:43:35.913Z,99792.00
2022-11-24T03:48:40.626Z,99806.19
2022-11-24T03:53:42.084Z,99796.53
2022-11-24T03:58:43.536Z,99807.16
2022-11-24T04:03:44.984Z,99807.28
2022-11-24T04:08:46.444Z,99812.22
2022-11-24T04:13:47.921Z,99816.41
2022-11-24T04:18:52.249Z,99828.88
2022-11-24T04:23:53.702Z,99830.59
2022-11-24T04:28:55.160Z,99831.13
2022-11-24T04:33:56.624Z,99840.06
2022-11-24T04:39:23.122Z,99849.19
2022-11-24T04:44:19.520Z,99864.66
2022-11-24T04:49:20.972Z,99870.28
2022-11-24T04:54:22.426Z,99870.09
2022-11-24T04:59:23.880Z,99874.56
2022-11-24T05:04:25.362Z,99877.50
2022-11-24T05:09:48.000Z,99884.38
2022-11-24T05:14:48.292Z,99892.78
2022-11-24T05:19:49.760Z,99898.13
2022-11-24T05:24:51.212Z,99915.47
2022-11-24T05:29:52.695Z,99920.28
2022-11-24T05:34:54.618Z,99917.16
2022-11-24T05:39:56.076Z,99924.56
2022-11-24T05:44:59.540Z,99921.94
2022-11-24T05:50:01.012Z,99936.72
2022-11-24T05:55:02.513Z,99931.06
2022-11-24T06:00:05.700Z,99951.88
2022-11-24T06:05:07.407Z,99948.88
2022-11-24T06:10:09.150Z,99963.34
2022-11-24T06:15:11.203Z,99964.47
2022-11-24T06:20:12.704Z,99957.84
2022-11-24T06:25:14.358Z,99964.72
2022-11-24T06:30:15.824Z,99963.63
2022-11-24T06:35:17.409Z,99972.91
2022-11-24T06:40:18.899Z,99982.72
2022-11-24T06:45:20.440Z,99997.22
2022-11-24T06:50:22.553Z,100009.88
2022-11-24T06:55:24.002Z,100003.47
2022-11-24T07:00:25.537Z,100015.34
2022-11-24T07:05:27.201Z,100028.97
2022-11-24T07:10:28.728Z,100025.84
2022-11-24T07:15:30.517Z,100053.84
2022-11-24T07:20:32.014Z,100060.66
2022-11-24T07:25:33.600Z,100069.69
2022-11-24T07:30:35.060Z,100075.22
2022-11-24T07:35:36.532Z,100089.81
2022-11-24T07:40:37.983Z,100099.47
2022-11-24T07:45:39.529Z,100102.91
2022-11-24T07:50:41.021Z,100099.38
2022-11-24T07:55:42.494Z,100115.38
2022-11-24T08:00:43.959Z,100122.88
2022-11-24T08:11:18.158Z,100131.97
2022-11-24T08:16:19.740Z,100136.84
2022-11-24T08:21:23.084Z,100137.88
2022-11-24T08:26:25.103Z,100138.19
2022-11-24T08:31:32.711Z,100140.88
2022-11-24T08:36:35.177Z,100140.91
2022-11-24T08:41:36.676Z,100139.34
2022-11-24T08:46:38.250Z,100144.19
2022-11-24T08:51:39.780Z,100152.50
2022-11-24T08:56:41.264Z,100162.16
2022-11-24T09:01:42.954Z,100164.06
2022-11-24T09:06:44.499Z,100165.53
2022-11-24T09:11:45.959Z,100189.78
2022-11-24T09:16:47.502Z,100205.03
2022-11-24T09:21:48.994Z,100208.91
2022-11-24T09:26:50.471Z,100210.44
2022-11-24T09:31:51.928Z,100214.78
2022-11-24T09:36:53.384Z,100219.56
2022-11-24T09:42:00.040Z,100225.31
2022-11-24T09:47:18.949Z,100216.63
2022-11-24T09:52:37.887Z,100213.22
2022-11-24T09:57:39.336Z,100229.69
2022-11-24T10:02:40.808Z,100231.03
2022-11-24T10:07:45.351Z,100233.63
2022-11-24T10:13:09.832Z,100244.44
2022-11-24T10:18:33.150Z,100239.69
2022-11-24T10:23:50.433Z,100254.53
2022-11-24T10:28:54.148Z,100245.41
2022-11-24T10:33:56.871Z,100252.72
2022-11-24T10:39:11.087Z,100252.97
2022-11-24T10:44:13.901Z,100263.13
2022-11-24T10:49:24.971Z,100278.50
2022-11-24T10:54:26.436Z,100294.41
2022-11-24T10:59:33.630Z,100282.53
2022-11-24T11:04:35.477Z,100292.44
2022-11-24T11:09:37.093Z,100300.91
2022-11-24T11:14:38.848Z,100302.75
2022-11-24T11:19:50.373Z,100311.69
2022-11-24T11:25:19.336Z,100318.81
2022-11-24T11:35:44.875Z,100324.56
2022-11-24T11:40:46.328Z,100345.63
2022-11-24T11:45:47.823Z,100343.72
2022-11-24T11:56:20.593Z,100348.44
2022-11-24T12:01:54.353Z,100357.06
2022-11-24T12:07:07.618Z,100368.78
2022-11-24T12:12:29.511Z,100366.00
2022-11-24T12:17:52.645Z,100371.53
2022-11-24T12:23:02.877Z,100373.38
2022-11-24T12:28:24.097Z,100376.00
2022-11-24T12:33:37.407Z,100380.56
2022-11-24T12:38:45.613Z,100390.09
2022-11-24T12:43:54.801Z,100398.59
2022-11-24T12:49:17.418Z,100395.19
2022-11-24T12:54:19.795Z,100411.97
2022-11-24T12:59:34.571Z,100399.72
2022-11-24T13:04:41.871Z,100403.09
2022-11-24T13:10:34.657Z,100411.06
2022-11-24T13:16:28.480Z,100413.94
2022-11-24T13:21:28.249Z,100412.19
2022-11-24T13:26:44.695Z,100419.81
2022-11-24T13:31:46.252Z,100423.66
2022-11-24T13:36:52.258Z,100421.34
2022-11-24T13:41:53.622Z,100434.47
2022-11-24T13:47:00.176Z,100433.22
2022-11-24T13:52:39.610Z,100443.72
2022-11-24T13:58:05.018Z,100435.53
2022-11-24T14:03:19.647Z,100431.72
2022-11-24T14:08:25.591Z,100435.25
2022-11-24T14:13:28.603Z,100438.56
2022-11-24T14:18:31.522Z,100436.81
2022-11-24T14:23:33.006Z,100435.97
2022-11-24T14:28:34.587Z,100438.28
2022-11-24T14:33:36.350Z,100445.50
2022-11-24T14:38:37.828Z,100448.75
2022-11-24T14:43:39.293Z,100462.91
2022-11-24T14:48:50.722Z,100467.22
2022-11-24T14:53:59.877Z,100467.69
2022-11-24T14:59:01.354Z,100477.00
2022-11-24T15:09:47.496Z,100475.03
2022-11-24T15:14:52.436Z,100484.72
2022-11-24T15:20:30.322Z,100490.69
2022-11-24T15:25:33.327Z,100502.16
2022-11-24T15:30:35.576Z,100508.38
2022-11-24T15:35:37.060Z,100520.56
2022-11-24T15:40:39.047Z,100522.34
2022-11-24T15:45:40.502Z,100528.13
2022-11-24T15:50:41.977Z,100537.34
2022-11-24T15:55:43.484Z,100554.69
2022-11-24T16:00:45.357Z,100548.91
2022-11-24T16:05:46.888Z,100549.81
2022-11-24T16:10:48.354Z,100559.09
2022-11-24T16:15:50.017Z,100558.56
2022-11-24T16:20:51.604Z,100553.34
2022-11-24T16:25:53.068Z,100561.66
2022-11-24T16:30:54.571Z,100565.25
2022-11-24T16:35:56.065Z,100567.50
2022-11-24T16:40:57.544Z,100571.56
2022-11-24T16:46:17.597Z,100579.25
2022-11-24T16:51:20.624Z,100572.44
2022-11-24T16:56:22.084Z,100578.44
2022-11-24T17:01:23.694Z,100572.00
2022-11-24T17:06:26.748Z,100579.31
2022-11-24T17:11:28.412Z,100586.53
2022-11-24T17:16:30.128Z,100589.97
2022-11-24T17:21:32.136Z,100585.47
2022-11-24T17:26:33.688Z,100597.03
2022-11-24T17:31:40.033Z,100598.84
2022-11-24T17:36:44.570Z,100600.44
2022-11-24T17:41:46.118Z,100600.25
2022-11-24T17:46:47.578Z,100597.22
2022-11-24T17:51:50.471Z,100597.09
2022-11-24T17:56:51.989Z,100596.84
2022-11-24T18:01:53.495Z,100599.69
2022-11-24T18:06:55.049Z,100612.59
2022-11-24T18:11:56.514Z,100599.41
2022-11-24T18:16:58.048Z,100604.81
2022-11-24T18:21:59.576Z,100603.69
2022-11-24T18:27:01.036Z,100605.53
2022-11-24T18:32:02.587Z,100609.19
2022-11-24T18:37:04.341Z,100601.44
2022-11-24T18:42:05.828Z,100597.88
2022-11-24T18:47:07.293Z,100602.03
2022-11-24T18:52:08.780Z,100600.88
2022-11-24T18:57:10.270Z,100605.94
2022-11-24T19:02:12.261Z,100611.34
2022-11-24T19:07:16.913Z,100617.88
2022-11-24T19:12:18.457Z,100614.72
2022-11-24T19:17:19.977Z,100623.50
2022-11-24T19:22:21.748Z,100629.34
2022-11-24T19:27:23.234Z,100630.91
2022-11-24T19:32:24.720Z,100625.06
2022-11-24T19:37:27.726Z,100640.00
2022-11-24T19:42:29.203Z,100643.69
2022-11-24T19:47:30.669Z,100642.44
2022-11-24T19:52:32.135Z,100651.03
2022-11-24T19:57:33.616Z,100648.88
2022-11-24T20:02:35.131Z,100654.81
2022-11-24T20:07:36.769Z,100664.59
2022-11-24T20:12:38.250Z,100660.25
2022-11-24T20:17:39.726Z,100663.25
2022-11-24T20:22:41.524Z,100663.00
2022-11-24T20:27:42.992Z,100663.69
2022-11-24T20:32:44.469Z,100669.81
2022-11-24T20:37:45.929Z,100666.97
2022-11-24T20:42:47.383Z,100662.66
2022-11-24T20:47:48.850Z,100672.56
2022-11-24T20:52:50.323Z,100680.63
2022-11-24T20:57:51.785Z,100669.13
2022-11-24T21:02:53.313Z,100671.78
2022-11-24T21:07:54.871Z,100669.88
2022-11-24T21:12:56.408Z,100652.09
2022-11-24T21:17:57.928Z,100656.38
2022-11-24T21:22:59.393Z,100653.13
2022-11-24T21:28:00.862Z,100666.13
2022-11-24T21:33:05.401Z,100647.81
2022-11-24T21:38:06.854Z,100652.06
2022-11-24T21:43:08.904Z,100634.34
2022-11-24T21:48:10.365Z,100648.94
2022-11-24T21:53:11.824Z,100647.38
2022-11-24T21:58:13.844Z,100645.81
2022-11-24T22:03:15.317Z,100653.34
2022-11-24T22:08:16.776Z,100652.03
2022-11-24T22:13:18.340Z,100643.84
2022-11-24T22:18:19.824Z,100659.81
2022-11-24T22:23:21.274Z,100644.63
2022-11-24T22:28:22.732Z,100653.72
2022-11-24T22:33:24.185Z,100638.91
2022-11-24T22:38:25.804Z,100656.34
2022-11-24T22:43:27.261Z,100650.78
2022-11-24T22:48:28.723Z,100648.16
2022-11-24T22:53:30.423Z,100634.09
2022-11-24T22:58:32.164Z,100618.50
2022-11-24T23:03:34.353Z,100618.78
2022-11-24T23:08:35.908Z,100615.50
2022-11-24T23:13:37.378Z,100616.56
2022-11-24T23:18:38.918Z,100605.41
2022-11-24T23:23:40.452Z,100605.84
2022-11-24T23:28:43.067Z,100622.16
2022-11-24T23:33:44.596Z,100610.06
2022-11-24T23:38:46.357Z,100599.03
2022-11-24T23:43:47.835Z,100609.09
2022-11-24T23:48:49.730Z,100601.47
2022-11-24T23:53:51.266Z,100604.06
2022-11-24T23:58:52.778Z,100590.16
